Observations for ALICANTE EL ALTET, Spain (LEAL)

LEAL 202000Z VRB01KT 9999 FEW018 SCT025 12/08 Q1026 NOSIG   
LEAL 201930Z 09003KT 060V140 9999 FEW018 SCT025 12/08 Q1026 NOSIG   
LEAL 201900Z 08006KT 9999 FEW018 13/09 Q1026 NOSIG  
LEAL 201830Z 08005KT 9999 FEW018 13/09 Q1026 NOSIG  
LEAL 201800Z 08006KT 9999 FEW018 13/08 Q1025 NOSIG  
LEAL 201730Z 10006KT 9999 FEW032 13/08 Q1025 NOSIG  
LEAL 201700Z 10007KT 080V150 9999 FEW032 14/08 Q1025 NOSIG  
LEAL 201630Z 10007KT 070V130 9999 FEW032 14/08 Q1025 NOSIG  
LEAL 201600Z 09008KT 060V140 9999 FEW032 15/08 Q1025 NOSIG  
LEAL 201530Z 11008KT 070V150 9999 FEW032 15/07 Q1025 NOSIG  
LEAL 201500Z 11007KT 070V150 9999 FEW032 15/08 Q1025 NOSIG  
LEAL 201430Z 10009KT 080V160 9999 FEW032 15/07 Q1025 NOSIG  
LEAL 201400Z 12008KT 070V160 9999 FEW032 15/06 Q1025 NOSIG  
LEAL 201330Z 12008KT 080V170 9999 FEW032 16/06 Q1025 NOSIG  
LEAL 201300Z 13007KT 080V190 9999 FEW032 16/06 Q1025 NOSIG  
LEAL 201230Z 11007KT 070V150 9999 FEW032 15/06 Q1025 NOSIG  
LEAL 201200Z 12006KT 070V170 9999 FEW032 16/06 Q1025 NOSIG  
LEAL 201130Z VRB02KT 9999 FEW025 15/05 Q1025 NOSIG  
LEAL 201100Z 00000KT 9999 FEW012 15/05 Q1025 NOSIG  
LEAL 201030Z VRB02KT 9999 FEW012 15/05 Q1025 NOSIG  
LEAL 201000Z 28004KT 210V350 9999 FEW010 14/05 Q1025 NOSIG  
LEAL 200930Z 29007KT 270V350 9999 FEW030 14/05 Q1025 NOSIG  
LEAL 200900Z 30006KT 270V330 9999 FEW030 13/05 Q1025 NOSIG  
LEAL 200830Z 31007KT 9999 FEW022 12/05 Q1024 NOSIG  
LEAL 200800Z 31008KT 9999 FEW022 10/05 Q1024 NOSIG  
LEAL 200730Z 30007KT 9999 FEW022 09/04 Q1024 NOSIG  
LEAL 200700Z 30008KT 9999 FEW022 09/04 Q1023 NOSIG  
LEAL 200630Z 30009KT 280V340 9999 FEW022 09/04 Q1023 NOSIG  
LEAL 200600Z 31009KT 9999 FEW022 09/04 Q1023 NOSIG  
LEAL 200530Z 31006KT 9999 FEW022 09/04 Q1023 NOSIG  
LEAL 200500Z 31006KT 9999 FEW022 SCT032 10/04 Q1023 NOSIG   
LEAL 200430Z 31006KT 9999 FEW022 SCT032 10/05 Q1022 NOSIG   
LEAL 200400Z 31004KT 9999 FEW022 SCT032 10/05 Q1022 NOSIG   
LEAL 200330Z 30006KT 270V330 9999 FEW022 SCT032 11/06 Q1022 NOSIG   
LEAL 200300Z 31005KT 9999 FEW022 SCT032 11/06 Q1022 NOSIG   
LEAL 200230Z 31003KT 9999 FEW022 12/07 Q1023 NOSIG  
LEAL 200200Z 29004KT 260V330 9999 FEW022 12/07 Q1023 NOSIG  
LEAL 200130Z VRB02KT 9999 FEW022 12/07 Q1023 NOSIG  
LEAL 200100Z 36002KT 9999 FEW022 12/07 Q1023 NOSIG  
LEAL 200030Z 36003KT 340V050 9999 FEW022 12/08 Q1023 NOSIG  
LEAL 200000Z 34003KT 9999 FEW022 11/08 Q1023 NOSIG  
LEAL 192330Z 34003KT 9999 FEW022 11/08 Q1023 NOSIG  
LEAL 192300Z 34003KT 300V030 9999 FEW018 10/07 Q1023 NOSIG  
LEAL 192230Z 33004KT 9999 FEW015 10/08 Q1023 NOSIG  
LEAL 192200Z VRB02KT 9999 FEW015 12/09 Q1023 NOSIG  
LEAL 192130Z 05004KT 360V080 9999 FEW015 12/09 Q1022 NOSIG  
LEAL 192100Z 06006KT 020V080 9999 FEW015 13/09 Q1022 NOSIG  
LEAL 192030Z 06005KT 030V100 9999 FEW015 13/09 Q1022 NOSIG  
LEAL 192000Z 07008KT 9999 FEW015 13/09 Q1022 NOSIG  
LEAL 191930Z 08010KT 9999 FEW015 13/10 Q1021 NOSIG